Time,TemperatureF,DewpointF,PressureIn,WindDirection,WindDirectionDegrees,WindSpeedMPH,WindSpeedGustMPH,Humidity,HourlyPrecipIn,Conditions,Clouds,dailyrainin,SoftwareType,DateUTC
2013-05-23 00:00:00,68.9,65.2,29.88,NW,306,0.0,0.0,88,0.00,RA,,0.00,WeatherDisplay:10.37,2013-05-23 04:00:00,
2013-05-23 00:05:00,69.0,65.3,29.88,NW,306,0.0,0.0,88,0.00,RA,,0.00,WeatherDisplay:10.37,2013-05-23 04:05:00,
2013-05-23 00:10:00,69.0,65.3,29.88,NW,306,0.0,1.0,88,0.00,CLR,,0.00,WeatherDisplay:10.37,2013-05-23 04:10:00,
2013-05-23 00:20:00,68.4,65.0,29.88,NW,306,1.0,3.0,89,0.00,CLR,,0.00,WeatherDisplay:10.37,2013-05-23 04:20:00,
2013-05-23 00:25:00,68.4,65.3,29.88,NW,306,1.0,2.0,90,0.00,CLR,,0.00,WeatherDisplay:10.37,2013-05-23 04:25:00,
2013-05-23 00:30:00,68.2,65.1,29.88,NW,306,0.0,3.0,90,0.00,CLR,,0.00,WeatherDisplay:10.37,2013-05-23 04:30:00,
2013-05-23 00:40:00,68.0,64.9,29.88,NW,306,1.0,3.0,90,0.00,CLR,,0.00,WeatherDisplay:10.37,2013-05-23 04:40:00,
2013-05-23 00:50:00,68.0,64.9,29.88,NW,306,1.0,3.0,90,0.00,CLR,,0.00,WeatherDisplay:10.37,2013-05-23 04:50:00,
2013-05-23 01:00:00,68.0,64.9,29.88,SW,224,3.0,8.0,90,0.00,CLR,,0.00,WeatherDisplay:10.37,2013-05-23 05:00:00,
2013-05-23 01:10:00,68.1,65.0,29.87,SW,229,2.0,5.0,90,0.00,CLR,,0.00,WeatherDisplay:10.37,2013-05-23 05:10:00,
2013-05-23 01:20:00,67.9,64.6,29.86,SW,228,0.0,1.0,89,0.00,CLR,,0.00,WeatherDisplay:10.37,2013-05-23 05:20:00,
2013-05-23 01:30:00,68.0,64.6,29.86,SW,228,1.0,3.0,89,0.00,CLR,,0.00,WeatherDisplay:10.37,2013-05-23 05:30:00,
2013-05-23 01:35:00,68.0,64.6,29.86,SW,228,0.0,3.0,89,0.00,CLR,,0.00,WeatherDisplay:10.37,2013-05-23 05:35:00,
2013-05-23 01:40:00,68.0,64.6,29.86,SW,228,1.0,3.0,89,0.00,CLR,,0.00,WeatherDisplay:10.37,2013-05-23 05:40:00,
2013-05-23 01:50:00,67.9,64.5,29.86,SW,228,0.0,1.0,89,0.00,CLR,,0.00,WeatherDisplay:10.37,2013-05-23 05:50:00,
2013-05-23 02:00:00,67.6,64.5,29.86,SW,228,0.0,0.0,90,0.00,CLR,,0.00,WeatherDisplay:10.37,2013-05-23 06:00:00,
2013-05-23 02:10:00,67.1,64.0,29.86,SW,229,0.0,0.0,90,0.00,CLR,,0.00,WeatherDisplay:10.37,2013-05-23 06:10:00,
2013-05-23 02:20:00,67.1,64.4,29.85,SW,228,0.0,0.0,91,0.00,CLR,,0.00,WeatherDisplay:10.37,2013-05-23 06:20:00,
2013-05-23 02:30:00,66.8,64.1,29.85,SW,228,0.0,1.0,91,0.00,CLR,,0.00,WeatherDisplay:10.37,2013-05-23 06:30:00,
2013-05-23 02:40:00,66.4,63.7,29.85,SW,228,0.0,0.0,91,0.00,CLR,,0.00,WeatherDisplay:10.37,2013-05-23 06:40:00,
2013-05-23 02:50:00,66.5,63.8,29.85,SW,228,0.0,1.0,91,0.00,CLR,,0.00,WeatherDisplay:10.37,2013-05-23 06:50:00,
2013-05-23 02:55:00,66.6,63.9,29.85,SW,228,0.0,0.0,91,0.00,CLR,,0.00,WeatherDisplay:10.37,2013-05-23 06:55:00,
2013-05-23 03:05:00,66.5,64.1,29.85,SW,228,0.0,3.0,92,0.00,CLR,,0.00,WeatherDisplay:10.37,2013-05-23 07:05:00,
2013-05-23 03:10:00,66.4,64.0,29.85,SW,228,0.0,1.0,92,0.00,CLR,,0.00,WeatherDisplay:10.37,2013-05-23 07:10:00,
2013-05-23 03:20:00,66.6,64.2,29.85,SW,228,0.0,1.0,92,0.00,CLR,,0.00,WeatherDisplay:10.37,2013-05-23 07:20:00,
2013-05-23 03:30:00,66.6,64.2,29.85,SW,228,0.0,1.0,92,0.00,CLR,,0.00,WeatherDisplay:10.37,2013-05-23 07:30:00,
2013-05-23 03:40:00,66.8,64.4,29.85,SW,228,0.0,3.0,92,0.00,CLR,,0.00,WeatherDisplay:10.37,2013-05-23 07:40:00,
2013-05-23 03:50:00,67.1,64.7,29.85,SW,228,0.0,2.0,92,0.00,CLR,,0.00,WeatherDisplay:10.37,2013-05-23 07:50:00,
2013-05-23 04:00:00,67.2,64.5,29.85,SW,228,0.0,0.0,91,0.00,CLR,,0.00,WeatherDisplay:10.37,2013-05-23 08:00:00,
2013-05-23 04:05:00,67.2,64.5,29.85,SW,228,0.0,0.0,91,0.00,CLR,,0.00,WeatherDisplay:10.37,2013-05-23 08:05:00,
2013-05-23 04:10:00,67.2,64.5,29.85,SW,228,0.0,3.0,91,0.00,CLR,,0.00,WeatherDisplay:10.37,2013-05-23 08:10:00,
2013-05-23 04:15:00,67.2,64.5,29.85,SW,228,0.0,3.0,91,0.00,CLR,,0.00,WeatherDisplay:10.37,2013-05-23 08:15:00,
2013-05-23 04:20:00,67.2,64.8,29.85,SW,228,1.0,3.0,92,0.00,CLR,,0.00,WeatherDisplay:10.37,2013-05-23 08:20:00,
2013-05-23 04:30:00,67.3,64.9,29.85,SW,228,0.0,5.0,92,0.00,CLR,,0.00,WeatherDisplay:10.37,2013-05-23 08:30:00,
2013-05-23 04:35:00,67.4,65.0,29.85,SW,228,3.0,6.0,92,0.00,CLR,,0.00,WeatherDisplay:10.37,2013-05-23 08:35:00,
2013-05-23 04:40:00,67.5,65.1,29.85,SW,227,1.0,6.0,92,0.00,CLR,,0.00,WeatherDisplay:10.37,2013-05-23 08:40:00,
2013-05-23 04:50:00,67.6,65.2,29.86,SW,223,1.0,6.0,92,0.00,CLR,,0.00,WeatherDisplay:10.37,2013-05-23 08:50:00,
2013-05-23 05:00:00,67.8,65.4,29.86,SSW,212,3.0,5.0,92,0.00,CLR,,0.00,WeatherDisplay:10.37,2013-05-23 09:00:00,
2013-05-23 05:10:00,68.0,65.6,29.85,SSW,209,2.0,6.0,92,0.00,CLR,,0.00,WeatherDisplay:10.37,2013-05-23 09:10:00,
2013-05-23 05:15:00,68.1,65.7,29.85,SSW,210,5.0,6.0,92,0.00,CLR,,0.00,WeatherDisplay:10.37,2013-05-23 09:15:00,
2013-05-23 05:20:00,68.2,65.8,29.85,SSW,209,3.0,7.0,92,0.00,CLR,,0.00,WeatherDisplay:10.37,2013-05-23 09:20:00,
2013-05-23 05:30:00,68.4,66.0,29.85,SSW,206,6.0,9.0,92,0.00,CLR,,0.00,WeatherDisplay:10.37,2013-05-23 09:30:00,
2013-05-23 05:40:00,68.5,66.1,29.86,SSW,207,5.0,7.0,92,0.00,CLR,,0.00,WeatherDisplay:10.37,2013-05-23 09:40:00,
2013-05-23 05:45:00,68.5,66.1,29.86,SSW,210,2.0,5.0,92,0.00,CLR,,0.00,WeatherDisplay:10.37,2013-05-23 09:45:00,
2013-05-23 05:50:00,68.5,66.1,29.86,SSW,210,3.0,7.0,92,0.00,CLR,,0.00,WeatherDisplay:10.37,2013-05-23 09:50:00,
2013-05-23 05:55:00,68.6,66.2,29.86,SSW,205,3.0,6.0,92,0.00,CLR,,0.00,WeatherDisplay:10.37,2013-05-23 09:55:00,
2013-05-23 06:00:00,68.7,66.3,29.86,SSW,209,5.0,10.0,92,0.00,CLR,,0.00,WeatherDisplay:10.37,2013-05-23 10:00:00,
2013-05-23 06:05:00,68.7,66.3,29.85,SSW,204,5.0,8.0,92,0.00,CLR,,0.00,WeatherDisplay:10.37,2013-05-23 10:05:00,
2013-05-23 06:10:00,68.7,66.3,29.86,SSW,208,5.0,7.0,92,0.00,CLR,,0.00,WeatherDisplay:10.37,2013-05-23 10:10:00,
2013-05-23 06:20:00,68.8,66.4,29.86,SSW,202,7.0,9.0,92,0.00,CLR,,0.00,WeatherDisplay:10.37,2013-05-23 10:20:00,
2013-05-23 06:30:00,69.0,66.2,29.86,SSW,206,6.0,9.0,91,0.00,CLR,,0.00,WeatherDisplay:10.37,2013-05-23 10:30:00,
2013-05-23 06:40:00,69.1,66.3,29.86,SSW,205,5.0,10.0,91,0.00,CLR,,0.00,WeatherDisplay:10.37,2013-05-23 10:40:00,
2013-05-23 06:50:00,69.3,66.6,29.86,SSW,202,5.0,13.0,91,0.00,CLR,,0.00,WeatherDisplay:10.37,2013-05-23 10:50:00,
2013-05-23 07:00:00,69.5,66.7,29.86,SSW,195,7.0,10.0,91,0.00,CLR,,0.00,WeatherDisplay:10.37,2013-05-23 11:00:00,
2013-05-23 07:10:00,69.7,67.0,29.86,SSW,203,3.0,9.0,91,0.00,CLR,,0.00,WeatherDisplay:10.37,2013-05-23 11:10:00,
2013-05-23 07:15:00,69.8,67.0,29.86,SSW,195,5.0,9.0,91,0.00,CLR,,0.00,WeatherDisplay:10.37,2013-05-23 11:15:00,
2013-05-23 07:20:00,69.8,67.0,29.86,South,185,3.0,12.0,91,0.00,CLR,,0.00,WeatherDisplay:10.37,2013-05-23 11:20:00,
2013-05-23 07:25:00,69.7,67.0,29.86,SSW,195,6.0,10.0,91,0.00,CLR,,0.00,WeatherDisplay:10.37,2013-05-23 11:25:00,
2013-05-23 07:30:00,69.9,67.4,29.86,SSW,202,6.0,10.0,92,0.00,CLR,,0.00,WeatherDisplay:10.37,2013-05-23 11:30:00,
2013-05-23 07:40:00,70.0,67.5,29.86,SSW,202,5.0,13.0,92,0.00,CLR,,0.00,WeatherDisplay:10.37,2013-05-23 11:40:00,
2013-05-23 07:45:00,70.0,67.6,29.86,SSW,206,6.0,12.0,92,0.00,CLR,,0.00,WeatherDisplay:10.37,2013-05-23 11:45:00,
2013-05-23 07:50:00,70.2,67.4,29.86,SSW,202,7.0,13.0,91,0.00,CLR,,0.00,WeatherDisplay:10.37,2013-05-23 11:50:00,
2013-05-23 08:00:00,70.4,67.6,29.86,SSW,201,7.0,12.0,91,0.00,CLR,,0.00,WeatherDisplay:10.37,2013-05-23 12:00:00,
2013-05-23 08:10:00,70.8,68.0,29.86,SSW,196,7.0,13.0,91,0.00,CLR,,0.00,WeatherDisplay:10.37,2013-05-23 12:10:00,
2013-05-23 08:20:00,71.0,67.9,29.86,SSW,211,7.0,13.0,90,0.00,CLR,,0.00,WeatherDisplay:10.37,2013-05-23 12:20:00,
2013-05-23 08:30:00,71.2,68.1,29.86,SSW,202,6.0,13.0,90,0.00,CLR,,0.00,WeatherDisplay:10.37,2013-05-23 12:30:00,
2013-05-23 08:40:00,71.3,67.9,29.86,SSW,203,7.0,14.0,89,0.00,CLR,,0.00,WeatherDisplay:10.37,2013-05-23 12:40:00,
2013-05-23 08:50:00,71.6,68.1,29.86,South,190,3.0,15.0,89,0.00,CLR,,0.00,WeatherDisplay:10.37,2013-05-23 12:50:00,
2013-05-23 08:55:00,71.5,67.7,29.86,SSW,199,9.0,16.0,88,0.00,CLR,,0.00,WeatherDisplay:10.37,2013-05-23 12:55:00,
2013-05-23 09:00:00,71.7,67.9,29.86,SSW,201,7.0,15.0,88,0.00,CLR,,0.00,WeatherDisplay:10.37,2013-05-23 13:00:00,
2013-05-23 09:10:00,71.7,67.6,29.87,SW,215,8.0,14.0,87,0.00,CLR,,0.00,WeatherDisplay:10.37,2013-05-23 13:10:00,
2013-05-23 09:15:00,71.9,67.8,29.87,SW,216,8.0,14.0,87,0.00,CLR,,0.00,WeatherDisplay:10.37,2013-05-23 13:15:00,
2013-05-23 09:20:00,72.0,67.9,29.87,SSW,208,7.0,15.0,87,0.00,CLR,,0.00,WeatherDisplay:10.37,2013-05-23 13:20:00,
2013-05-23 09:30:00,72.6,67.8,29.86,SSW,213,9.0,13.0,85,0.00,CLR,,0.00,WeatherDisplay:10.37,2013-05-23 13:30:00,
2013-05-23 09:40:00,72.7,67.6,29.86,SSW,205,12.0,17.0,84,0.00,CLR,,0.00,WeatherDisplay:10.37,2013-05-23 13:40:00,
2013-05-23 09:50:00,72.9,67.8,29.86,SSW,199,12.0,20.0,84,0.00,CLR,,0.00,WeatherDisplay:10.37,2013-05-23 13:50:00,
2013-05-23 10:00:00,72.9,67.8,29.86,SSW,211,8.0,17.0,84,0.00,CLR,,0.00,WeatherDisplay:10.37,2013-05-23 14:00:00,
2013-05-23 10:05:00,73.0,67.9,29.87,SSW,198,7.0,15.0,84,0.00,CLR,,0.00,WeatherDisplay:10.37,2013-05-23 14:05:00,
2013-05-23 10:10:00,73.0,67.5,29.86,SSW,199,7.0,14.0,83,0.00,CLR,,0.00,WeatherDisplay:10.37,2013-05-23 14:10:00,
2013-05-23 10:20:00,73.0,67.5,29.87,SSW,204,7.0,17.0,83,0.00,CLR,,0.00,WeatherDisplay:10.37,2013-05-23 14:20:00,
2013-05-23 10:30:00,73.4,67.2,29.86,SSW,207,9.0,16.0,81,0.00,CLR,,0.00,WeatherDisplay:10.37,2013-05-23 14:30:00,
2013-05-23 10:40:00,74.1,67.9,29.87,SSW,197,7.0,13.0,81,0.00,CLR,,0.00,WeatherDisplay:10.37,2013-05-23 14:40:00,
2013-05-23 10:50:00,73.9,67.7,29.87,SSW,211,6.0,13.0,81,0.00,CLR,,0.00,WeatherDisplay:10.37,2013-05-23 14:50:00,
2013-05-23 11:00:00,73.7,67.5,29.87,SSW,210,6.0,13.0,81,0.00,CLR,,0.00,WeatherDisplay:10.37,2013-05-23 15:00:00,
2013-05-23 11:10:00,74.1,67.9,29.87,SSW,198,10.0,16.0,81,0.00,CLR,,0.00,WeatherDisplay:10.37,2013-05-23 15:10:00,
2013-05-23 11:20:00,74.6,68.0,29.87,SSW,197,7.0,17.0,80,0.00,CLR,,0.00,WeatherDisplay:10.37,2013-05-23 15:20:00,
2013-05-23 11:30:00,74.8,67.4,29.87,SW,218,12.0,17.0,78,0.00,CLR,,0.00,WeatherDisplay:10.37,2013-05-23 15:30:00,
2013-05-23 11:40:00,74.4,67.4,29.87,SSW,206,8.0,13.0,79,0.00,CLR,,0.00,WeatherDisplay:10.37,2013-05-23 15:40:00,
2013-05-23 11:45:00,74.3,67.4,29.87,SSW,212,8.0,13.0,79,0.00,CLR,,0.00,WeatherDisplay:10.37,2013-05-23 15:45:00,
2013-05-23 11:50:00,74.6,67.3,29.87,SW,218,9.0,16.0,78,0.00,CLR,,0.00,WeatherDisplay:10.37,2013-05-23 15:50:00,
2013-05-23 12:00:00,74.7,67.0,29.87,SSW,205,8.0,15.0,77,0.00,CLR,,0.00,WeatherDisplay:10.37,2013-05-23 16:00:00,
2013-05-23 12:05:00,74.9,67.2,29.86,SSW,206,6.0,10.0,77,0.00,CLR,,0.00,WeatherDisplay:10.37,2013-05-23 16:05:00,
2013-05-23 12:10:00,74.6,66.9,29.86,SW,216,6.0,14.0,77,0.00,CLR,,0.00,WeatherDisplay:10.37,2013-05-23 16:10:00,
2013-05-23 12:20:00,74.3,67.0,29.86,SW,218,3.0,13.0,78,0.00,CLR,,0.00,WeatherDisplay:10.37,2013-05-23 16:20:00,
2013-05-23 12:30:00,74.0,67.1,29.86,SW,223,5.0,10.0,79,0.00,CLR,,0.00,WeatherDisplay:10.37,2013-05-23 16:30:00,
2013-05-23 12:40:00,73.8,67.2,29.86,SSW,198,6.0,13.0,80,0.00,CLR,,0.00,WeatherDisplay:10.37,2013-05-23 16:40:00,
2013-05-23 12:50:00,74.6,67.6,29.85,SSW,198,6.0,10.0,79,0.00,CLR,,0.00,WeatherDisplay:10.37,2013-05-23 16:50:00,
2013-05-23 12:55:00,75.5,68.5,29.85,SW,215,2.0,8.0,79,0.00,CLR,,0.00,WeatherDisplay:10.37,2013-05-23 16:55:00,
2013-05-23 13:00:00,75.8,67.7,29.85,SW,214,6.0,12.0,76,0.00,CLR,,0.00,WeatherDisplay:10.37,2013-05-23 17:00:00,
2013-05-23 13:10:00,75.5,67.4,29.85,SW,236,5.0,9.0,76,0.00,CLR,,0.00,WeatherDisplay:10.37,2013-05-23 17:10:00,
2013-05-23 13:20:00,75.6,67.5,29.84,SW,230,6.0,13.0,76,0.00,CLR,,0.00,WeatherDisplay:10.37,2013-05-23 17:20:00,
2013-05-23 13:30:00,75.8,69.1,29.83,SSW,201,5.0,10.0,80,0.00,CLR,,0.00,WeatherDisplay:10.37,2013-05-23 17:30:00,
2013-05-23 13:40:00,76.5,68.0,29.83,SW,214,7.0,13.0,75,0.00,CLR,,0.00,WeatherDisplay:10.37,2013-05-23 17:40:00,
2013-05-23 13:50:00,76.9,68.3,29.83,SSW,201,7.0,13.0,75,0.00,CLR,,0.00,WeatherDisplay:10.37,2013-05-23 17:50:00,
2013-05-23 14:00:00,76.2,68.0,29.82,SSW,199,9.0,18.0,76,0.00,CLR,,0.00,WeatherDisplay:10.37,2013-05-23 18:00:00,
2013-05-23 14:10:00,75.8,67.7,29.82,SSW,207,10.0,18.0,76,0.00,CLR,,0.00,WeatherDisplay:10.37,2013-05-23 18:10:00,
2013-05-23 14:15:00,75.6,67.5,29.82,SSW,202,8.0,16.0,76,0.00,CLR,,0.00,WeatherDisplay:10.37,2013-05-23 18:15:00,
2013-05-23 14:20:00,75.6,67.5,29.82,SSW,204,8.0,16.0,76,0.00,CLR,,0.00,WeatherDisplay:10.37,2013-05-23 18:20:00,
2013-05-23 14:25:00,75.5,67.8,29.82,SSW,209,8.0,14.0,77,0.00,CLR,,0.00,WeatherDisplay:10.37,2013-05-23 18:25:00,
2013-05-23 14:30:00,75.6,67.5,29.82,SSW,203,10.0,16.0,76,0.00,CLR,,0.00,WeatherDisplay:10.37,2013-05-23 18:30:00,
2013-05-23 14:40:00,76.2,67.7,29.82,SSW,197,13.0,16.0,75,0.00,CLR,,0.00,WeatherDisplay:10.37,2013-05-23 18:40:00,
2013-05-23 14:50:00,76.2,66.9,29.81,SSW,212,13.0,21.0,73,0.00,CLR,,0.00,WeatherDisplay:10.37,2013-05-23 18:50:00,
2013-05-23 15:00:00,76.3,67.0,29.81,SSW,211,6.0,13.0,73,0.00,CLR,,0.00,WeatherDisplay:10.37,2013-05-23 19:00:00,
2013-05-23 15:05:00,76.6,67.3,29.81,SW,221,8.0,15.0,73,0.00,CLR,,0.00,WeatherDisplay:10.37,2013-05-23 19:05:00,
2013-05-23 15:10:00,76.9,67.2,29.80,SW,214,8.0,13.0,72,0.00,CLR,,0.00,WeatherDisplay:10.37,2013-05-23 19:10:00,
2013-05-23 15:15:00,77.3,67.2,29.80,SSW,205,7.0,15.0,71,0.00,CLR,,0.00,WeatherDisplay:10.37,2013-05-23 19:15:00,
2013-05-23 15:20:00,77.8,67.7,29.79,SSW,211,6.0,13.0,71,0.00,CLR,,0.00,WeatherDisplay:10.37,2013-05-23 19:20:00,
2013-05-23 15:30:00,77.8,66.3,29.79,SW,217,10.0,17.0,68,0.00,CLR,,0.00,WeatherDisplay:10.37,2013-05-23 19:30:00,
2013-05-23 15:40:00,78.8,66.4,29.78,SW,235,5.0,15.0,66,0.00,CLR,,0.00,WeatherDisplay:10.37,2013-05-23 19:40:00,
2013-05-23 15:50:00,79.2,66.4,29.78,SW,227,5.0,13.0,65,0.00,CLR,,0.00,WeatherDisplay:10.37,2013-05-23 19:50:00,
2013-05-23 16:00:00,79.2,66.9,29.77,SW,221,6.0,13.0,66,0.00,CLR,,0.00,WeatherDisplay:10.37,2013-05-23 20:00:00,
2013-05-23 16:05:00,78.7,66.8,29.77,SW,217,8.0,15.0,67,0.00,CLR,,0.00,WeatherDisplay:10.37,2013-05-23 20:05:00,
2013-05-23 16:10:00,78.1,66.2,29.77,SSW,208,9.0,14.0,67,0.00,CLR,,0.00,WeatherDisplay:10.37,2013-05-23 20:10:00,
2013-05-23 16:20:00,78.5,67.5,29.77,SSW,203,8.0,14.0,69,0.00,CLR,,0.00,WeatherDisplay:10.37,2013-05-23 20:20:00,
2013-05-23 16:30:00,77.9,67.3,29.76,SSW,200,7.0,15.0,70,0.00,CLR,,0.00,WeatherDisplay:10.37,2013-05-23 20:30:00,
2013-05-23 16:35:00,78.5,67.5,29.76,SSW,203,12.0,17.0,69,0.00,CLR,,0.00,WeatherDisplay:10.37,2013-05-23 20:35:00,
2013-05-23 16:40:00,78.6,67.1,29.76,South,182,8.0,13.0,68,0.00,CLR,,0.00,WeatherDisplay:10.37,2013-05-23 20:40:00,
2013-05-23 16:50:00,79.0,67.5,29.76,SW,223,10.0,16.0,68,0.00,CLR,,0.00,WeatherDisplay:10.37,2013-05-23 20:50:00,
2013-05-23 17:00:00,78.0,68.2,29.76,SSW,200,9.0,15.0,72,0.00,CLR,,0.00,WeatherDisplay:10.37,2013-05-23 21:00:00,
2013-05-23 17:10:00,77.4,68.5,29.76,South,175,9.0,13.0,74,0.00,CLR,,0.00,WeatherDisplay:10.37,2013-05-23 21:10:00,
2013-05-23 17:20:00,77.3,68.8,29.75,South,170,10.0,14.0,75,0.00,CLR,,0.00,WeatherDisplay:10.37,2013-05-23 21:20:00,
2013-05-23 17:30:00,77.0,69.6,29.75,South,191,6.0,12.0,78,0.00,CLR,,0.00,WeatherDisplay:10.37,2013-05-23 21:30:00,
2013-05-23 17:35:00,76.7,69.3,29.75,South,184,1.0,10.0,78,0.00,CLR,,0.00,WeatherDisplay:10.37,2013-05-23 21:35:00,
2013-05-23 17:40:00,76.7,69.3,29.75,South,188,3.0,13.0,78,0.00,CLR,,0.00,WeatherDisplay:10.37,2013-05-23 21:40:00,
2013-05-23 17:50:00,76.5,69.1,29.75,South,183,10.0,16.0,78,0.00,CLR,,0.00,WeatherDisplay:10.37,2013-05-23 21:50:00,
2013-05-23 18:00:00,73.6,69.1,29.74,South,169,10.0,13.0,86,0.01,RA,,0.07,WeatherDisplay:10.37,2013-05-23 22:00:00,
2013-05-23 18:10:00,72.5,69.1,29.74,SSE,162,6.0,10.0,89,0.00,,,0.07,WeatherDisplay:10.37,2013-05-23 22:10:00,
2013-05-23 18:15:00,72.3,68.8,29.74,South,169,6.0,13.0,89,0.00,CLR,,0.07,WeatherDisplay:10.37,2013-05-23 22:15:00,
2013-05-23 18:20:00,72.1,68.7,29.74,SSE,156,9.0,14.0,89,0.00,CLR,,0.07,WeatherDisplay:10.37,2013-05-23 22:20:00,
2013-05-23 18:30:00,71.9,68.8,29.74,South,173,8.0,12.0,90,0.00,CLR,,0.07,WeatherDisplay:10.37,2013-05-23 22:30:00,
2013-05-23 18:40:00,71.7,68.3,29.74,South,185,7.0,15.0,89,0.00,CLR,,0.07,WeatherDisplay:10.37,2013-05-23 22:40:00,
2013-05-23 18:50:00,71.5,68.1,29.75,SSW,195,5.0,8.0,89,0.00,RA,,0.08,WeatherDisplay:10.37,2013-05-23 22:50:00,
2013-05-23 19:00:00,71.7,68.3,29.75,SSW,208,2.0,6.0,89,0.00,CLR,,0.08,WeatherDisplay:10.37,2013-05-23 23:00:00,
2013-05-23 19:10:00,71.7,68.6,29.76,SW,226,3.0,5.0,90,0.00,CLR,,0.08,WeatherDisplay:10.37,2013-05-23 23:10:00,
2013-05-23 19:15:00,71.0,67.3,29.77,NW,320,5.0,10.0,88,0.00,CLR,,0.08,WeatherDisplay:10.37,2013-05-23 23:15:00,
2013-05-23 19:20:00,70.0,64.9,29.76,NW,326,2.0,10.0,84,0.00,CLR,,0.08,WeatherDisplay:10.37,2013-05-23 23:20:00,
2013-05-23 19:30:00,69.0,62.5,29.77,NNW,329,5.0,9.0,80,0.00,CLR,,0.08,WeatherDisplay:10.37,2013-05-23 23:30:00,
2013-05-23 19:35:00,68.8,63.1,29.77,North,351,1.0,5.0,82,0.00,CLR,,0.08,WeatherDisplay:10.37,2013-05-23 23:35:00,
2013-05-23 19:40:00,68.6,62.9,29.76,NNE,13,1.0,7.0,82,0.00,CLR,,0.08,WeatherDisplay:10.37,2013-05-23 23:40:00,
2013-05-23 19:50:00,68.1,62.7,29.77,NNE,12,1.0,5.0,83,0.00,CLR,,0.08,WeatherDisplay:10.37,2013-05-23 23:50:00,
2013-05-23 20:00:00,67.9,63.2,29.78,NNW,346,5.0,9.0,85,0.00,CLR,,0.08,WeatherDisplay:10.37,2013-05-24 00:00:00,
2013-05-23 20:10:00,67.6,62.9,29.78,NNW,334,6.0,12.0,85,0.00,CLR,,0.08,WeatherDisplay:10.37,2013-05-24 00:10:00,
2013-05-23 20:15:00,67.1,62.8,29.81,NW,307,8.0,17.0,86,0.17,RA,,0.25,WeatherDisplay:10.37,2013-05-24 00:15:00,
2013-05-23 20:20:00,65.7,61.7,29.79,NNW,342,8.0,21.0,87,0.35,RA,,0.60,WeatherDisplay:10.37,2013-05-24 00:20:00,
2013-05-23 20:30:00,64.4,61.7,29.78,NNE,13,3.0,9.0,91,0.00,RA,,0.65,WeatherDisplay:10.37,2013-05-24 00:30:00,
2013-05-23 20:35:00,64.1,61.7,29.78,North,9,0.0,2.0,92,0.05,RA,,0.70,WeatherDisplay:10.37,2013-05-24 00:35:00,
2013-05-23 20:40:00,64.1,61.7,29.78,North,9,0.0,3.0,92,0.01,RA,,0.71,WeatherDisplay:10.37,2013-05-24 00:40:00,
2013-05-23 20:45:00,64.0,62.0,29.77,NNE,20,7.0,9.0,93,0.00,RA,,0.71,WeatherDisplay:10.37,2013-05-24 00:45:00,
2013-05-23 20:50:00,64.2,62.1,29.77,NNE,24,2.0,7.0,93,0.00,,,0.71,WeatherDisplay:10.37,2013-05-24 00:50:00,
2013-05-23 21:00:00,64.2,62.4,29.77,North,350,0.0,5.0,94,0.15,RA,,0.95,WeatherDisplay:10.37,2013-05-24 01:00:00,
2013-05-23 21:05:00,64.1,62.3,29.78,North,351,0.0,2.0,94,0.11,RA,,1.06,WeatherDisplay:10.37,2013-05-24 01:05:00,
2013-05-23 21:10:00,64.0,62.2,29.77,East,81,2.0,5.0,94,0.09,RA,,1.15,WeatherDisplay:10.37,2013-05-24 01:10:00,
2013-05-23 21:20:00,64.0,62.6,29.76,NNE,26,0.0,1.0,95,0.01,RA,,1.21,WeatherDisplay:10.37,2013-05-24 01:20:00,
2013-05-23 21:25:00,63.9,62.5,29.76,NNE,25,0.0,0.0,95,0.00,RA,,1.21,WeatherDisplay:10.37,2013-05-24 01:25:00,
2013-05-23 21:30:00,64.0,62.5,29.75,NNE,25,0.0,1.0,95,0.00,CLR,,1.21,WeatherDisplay:10.37,2013-05-24 01:30:00,
2013-05-23 21:40:00,64.1,62.7,29.75,NNE,25,0.0,3.0,95,0.00,CLR,,1.21,WeatherDisplay:10.37,2013-05-24 01:40:00,
2013-05-23 21:50:00,64.3,63.2,29.75,ESE,111,1.0,5.0,96,0.00,CLR,,1.21,WeatherDisplay:10.37,2013-05-24 01:50:00,
2013-05-23 22:00:00,64.4,63.2,29.77,West,271,8.0,12.0,96,0.00,CLR,,1.21,WeatherDisplay:10.37,2013-05-24 02:00:00,
2013-05-23 22:05:00,64.0,62.8,29.77,West,272,1.0,6.0,96,0.00,CLR,,1.21,WeatherDisplay:10.37,2013-05-24 02:05:00,
2013-05-23 22:10:00,64.0,62.8,29.77,West,273,2.0,5.0,96,0.00,CLR,,1.21,WeatherDisplay:10.37,2013-05-24 02:10:00,
2013-05-23 22:20:00,63.7,62.5,29.76,NNW,343,5.0,8.0,96,0.00,CLR,,1.21,WeatherDisplay:10.37,2013-05-24 02:20:00,
2013-05-23 22:30:00,63.9,62.7,29.75,NNE,27,0.0,2.0,96,0.00,CLR,,1.21,WeatherDisplay:10.37,2013-05-24 02:30:00,
2013-05-23 22:40:00,64.3,63.1,29.76,WSW,249,2.0,5.0,96,0.01,RA,,1.23,WeatherDisplay:10.37,2013-05-24 02:40:00,
2013-05-23 22:50:00,64.0,62.8,29.76,South,186,3.0,6.0,96,0.01,RA,,1.25,WeatherDisplay:10.37,2013-05-24 02:50:00,
2013-05-23 22:55:00,64.0,62.8,29.76,South,182,0.0,5.0,96,0.00,RA,,1.25,WeatherDisplay:10.37,2013-05-24 02:55:00,
2013-05-23 23:00:00,64.1,62.9,29.76,South,183,0.0,3.0,96,0.00,CLR,,1.25,WeatherDisplay:10.37,2013-05-24 03:00:00,
2013-05-23 23:05:00,63.9,62.7,29.76,South,183,0.0,3.0,96,0.01,RA,,1.26,WeatherDisplay:10.37,2013-05-24 03:05:00,
2013-05-23 23:10:00,63.8,62.6,29.75,South,183,0.0,1.0,96,0.01,RA,,1.27,WeatherDisplay:10.37,2013-05-24 03:10:00,
2013-05-23 23:15:00,63.9,62.7,29.77,South,183,0.0,1.0,96,0.00,RA,,1.27,WeatherDisplay:10.37,2013-05-24 03:15:00,
2013-05-23 23:20:00,64.1,62.9,29.78,South,188,0.0,5.0,96,0.00,,,1.27,WeatherDisplay:10.37,2013-05-24 03:20:00,
2013-05-23 23:30:00,63.9,62.7,29.77,SW,236,0.0,4.0,96,0.00,CLR,,1.27,WeatherDisplay:10.37,2013-05-24 03:30:00,
2013-05-23 23:40:00,63.8,62.6,29.76,WSW,238,0.0,3.0,96,0.01,RA,,1.28,WeatherDisplay:10.37,2013-05-24 03:40:00,
2013-05-23 23:50:00,63.8,62.6,29.77,WSW,239,0.0,0.0,96,0.00,CLR,,1.28,WeatherDisplay:10.37,2013-05-24 03:50:00,
2013-05-23 23:55:00,63.9,62.7,29.77,WSW,239,1.0,3.0,96,0.00,CLR,,1.28,WeatherDisplay:10.37,2013-05-24 03:55:00,